createdAt,value
2019-02-05T00:00:40.063Z,9.30
2019-02-05T00:03:11.602Z,9.00
2019-02-05T00:05:41.865Z,10.50
2019-02-05T00:08:12.274Z,9.03
2019-02-05T00:10:44.044Z,12.75
2019-02-05T00:13:17.544Z,14.07
2019-02-05T00:15:49.567Z,11.45
2019-02-05T00:18:21.488Z,12.87
2019-02-05T00:20:52.060Z,12.20
2019-02-05T00:23:22.540Z,14.30
2019-02-05T00:26:05.869Z,11.67
2019-02-05T00:28:32.713Z,13.37
2019-02-05T00:31:06.728Z,10.85
2019-02-05T00:33:37.109Z,11.23
2019-02-05T00:36:07.733Z,10.43
2019-02-05T00:38:38.219Z,13.73
2019-02-05T00:41:08.623Z,11.67
2019-02-05T00:43:39.052Z,11.30
2019-02-05T00:46:21.938Z,11.38
2019-02-05T00:48:42.987Z,9.57
2019-02-05T00:51:17.056Z,12.43
2019-02-05T00:53:49.170Z,10.10
2019-02-05T00:56:20.122Z,11.83
2019-02-05T00:58:50.599Z,13.33
2019-02-05T01:01:23.555Z,12.33
2019-02-05T01:03:56.844Z,12.83
2019-02-05T01:06:50.679Z,8.93
2019-02-05T01:09:27.781Z,13.80
2019-02-05T01:12:00.458Z,11.93
2019-02-05T01:14:31.789Z,12.40
2019-02-05T01:17:05.928Z,9.67
2019-02-05T01:19:37.399Z,9.88
2019-02-05T01:22:08.133Z,10.83
2019-02-05T01:24:38.427Z,11.33
2019-02-05T01:27:08.755Z,11.00
2019-02-05T01:29:42.452Z,13.07
2019-02-05T01:32:18.814Z,11.90
2019-02-05T01:34:54.218Z,11.35
2019-02-05T01:37:45.126Z,9.17
2019-02-05T01:40:17.406Z,13.83
2019-02-05T01:42:53.984Z,10.97
2019-02-05T01:45:31.903Z,11.23
2019-02-05T01:48:07.708Z,10.68
2019-02-05T01:50:38.297Z,11.77
2019-02-05T01:53:09.607Z,12.00
2019-02-05T01:55:39.986Z,12.53
2019-02-05T01:58:11.211Z,11.08
2019-02-05T02:00:47.955Z,13.13
2019-02-05T02:03:28.037Z,9.94
2019-02-05T02:06:07.268Z,10.50
2019-02-05T02:08:55.326Z,9.95
2019-02-05T02:11:35.495Z,11.15
2019-02-05T02:14:10.272Z,11.40
2019-02-05T02:16:47.546Z,12.80
2019-02-05T02:19:21.192Z,14.53
2019-02-05T02:22:01.427Z,14.57
2019-02-05T02:24:41.792Z,12.38
2019-02-05T02:27:15.569Z,12.33
2019-02-05T02:29:47.561Z,14.17
2019-02-05T02:32:21.230Z,15.63
2019-02-05T02:35:13.971Z,14.63
2019-02-05T02:38:09.591Z,14.07
2019-02-05T02:40:39.909Z,19.03
2019-02-05T02:43:19.728Z,17.27
2019-02-05T02:45:52.871Z,16.87
2019-02-05T02:48:25.218Z,16.53
2019-02-05T02:51:03.267Z,16.43
2019-02-05T02:53:28.127Z,18.83
2019-02-05T02:56:02.642Z,21.60
2019-02-05T02:58:33.251Z,20.55
2019-02-05T03:01:04.940Z,17.24
2019-02-05T03:03:39.627Z,19.47
2019-02-05T03:09:06.399Z,17.60
2019-02-05T03:18:59.037Z,19.07
2019-02-05T03:21:33.986Z,18.17
2019-02-05T03:24:09.647Z,19.23
2019-02-05T03:27:02.205Z,22.40
2019-02-05T03:29:38.343Z,19.44
2019-02-05T03:32:11.252Z,19.37
2019-02-05T03:34:43.479Z,20.50
2019-02-05T03:37:13.929Z,19.10
2019-02-05T03:39:44.522Z,18.42
2019-02-05T03:42:17.107Z,21.30
2019-02-05T03:45:08.747Z,22.60
2019-02-05T03:47:40.810Z,18.43
2019-02-05T03:50:12.413Z,19.03
2019-02-05T03:52:54.505Z,19.35
2019-02-05T03:55:49.307Z,21.37
2019-02-05T03:58:47.176Z,20.37
2019-02-05T04:01:53.877Z,19.13
2019-02-05T04:05:08.625Z,20.77
2019-02-05T04:08:31.119Z,24.43
2019-02-05T04:11:52.395Z,20.08
2019-02-05T04:15:05.482Z,17.57
2019-02-05T04:18:24.806Z,19.80
2019-02-05T04:21:36.322Z,20.77
2019-02-05T04:24:54.279Z,24.37
2019-02-05T04:28:00.734Z,27.58
2019-02-05T04:31:04.721Z,22.93
2019-02-05T04:34:04.014Z,27.30
2019-02-05T04:37:33.737Z,23.23
2019-02-05T04:40:34.791Z,25.77
2019-02-05T04:43:26.204Z,32.30
2019-02-05T04:46:33.885Z,25.10
2019-02-05T04:49:41.061Z,24.40
2019-02-05T04:53:07.907Z,28.27
2019-02-05T04:56:20.548Z,25.25
2019-02-05T04:59:27.259Z,29.92
2019-02-05T05:02:47.042Z,24.25
2019-02-05T05:06:01.918Z,24.73
2019-02-05T05:08:57.273Z,23.40
2019-02-05T05:11:29.326Z,25.80
2019-02-05T05:14:01.291Z,28.67
2019-02-05T05:16:31.806Z,27.27
2019-02-05T05:19:03.425Z,26.80
2019-02-05T05:21:34.767Z,36.63
2019-02-05T05:24:12.154Z,28.60
2019-02-05T05:26:45.761Z,27.67
2019-02-05T05:29:43.238Z,37.85
2019-02-05T05:32:23.525Z,30.57
2019-02-05T05:34:56.233Z,33.53
2019-02-05T05:37:30.546Z,34.60
2019-02-05T05:40:15.337Z,31.07
2019-02-05T05:43:10.373Z,31.10
2019-02-05T05:45:27.000Z,32.10
2019-02-05T05:47:59.118Z,28.13
2019-02-05T05:50:29.850Z,33.78
2019-02-05T05:53:00.337Z,29.20
2019-02-05T05:55:32.382Z,29.98
2019-02-05T05:58:06.685Z,30.37
2019-02-05T06:00:39.661Z,28.67
2019-02-05T06:03:20.981Z,32.87
2019-02-05T06:06:22.048Z,34.80
2019-02-05T06:08:34.271Z,30.50
2019-02-05T06:11:07.450Z,32.93
2019-02-05T06:13:38.247Z,27.57
2019-02-05T06:16:08.846Z,29.25
2019-02-05T06:18:39.325Z,33.57
2019-02-05T06:21:10.035Z,33.85
2019-02-05T06:23:47.438Z,32.97
2019-02-05T06:26:20.220Z,36.23
2019-02-05T06:28:51.908Z,31.27
2019-02-05T06:32:06.173Z,32.93
2019-02-05T06:34:39.273Z,33.90
2019-02-05T06:36:51.996Z,31.67
2019-02-05T06:39:22.781Z,33.78
2019-02-05T06:41:53.123Z,34.17
2019-02-05T06:44:23.441Z,31.47
2019-02-05T06:46:54.115Z,42.38
2019-02-05T06:49:29.202Z,31.77
2019-02-05T06:52:01.011Z,36.67
2019-02-05T06:54:42.960Z,48.63
2019-02-05T06:57:38.927Z,38.67
2019-02-05T07:00:17.817Z,45.50
2019-02-05T07:03:03.970Z,43.37
2019-02-05T07:05:31.317Z,46.30
2019-02-05T07:08:07.829Z,45.67
2019-02-05T07:10:48.545Z,44.57
2019-02-05T07:13:23.760Z,52.17
2019-02-05T07:15:55.256Z,50.43
2019-02-05T07:18:27.115Z,52.43
2019-02-05T07:20:57.594Z,54.67
2019-02-05T07:23:28.206Z,47.33
2019-02-05T07:25:58.852Z,47.20
2019-02-05T07:28:38.118Z,47.57
2019-02-05T07:31:11.120Z,46.13
2019-02-05T07:33:43.645Z,45.30
2019-02-05T07:36:14.248Z,55.13
2019-02-05T07:38:44.621Z,49.43
2019-02-05T07:41:15.294Z,58.47
2019-02-05T07:43:45.710Z,48.77
2019-02-05T07:46:18.335Z,60.12
2019-02-05T07:48:51.161Z,64.00
2019-02-05T07:51:23.222Z,62.33
2019-02-05T07:54:19.336Z,52.23
2019-02-05T07:57:00.019Z,53.47
2019-02-05T07:59:37.825Z,53.50
2019-02-05T08:02:11.968Z,52.07
2019-02-05T08:04:49.838Z,49.27
2019-02-05T08:07:53.607Z,51.33
2019-02-05T08:10:29.691Z,64.07
2019-02-05T08:13:00.498Z,45.55
2019-02-05T08:15:36.416Z,52.23
2019-02-05T08:18:08.459Z,44.57
2019-02-05T08:20:38.715Z,49.13
2019-02-05T08:23:09.411Z,51.97
2019-02-05T08:25:39.709Z,49.77
2019-02-05T08:28:11.363Z,45.07
2019-02-05T08:30:46.243Z,53.97
2019-02-05T08:33:27.288Z,48.83
2019-02-05T08:36:17.316Z,44.67
2019-02-05T08:38:50.057Z,39.27
2019-02-05T08:41:25.328Z,44.98
2019-02-05T08:44:02.232Z,42.73
2019-02-05T08:46:53.321Z,42.47
2019-02-05T08:49:21.812Z,42.43
2019-02-05T08:51:53.830Z,37.50
2019-02-05T08:54:24.404Z,42.64
2019-02-05T08:56:54.676Z,34.93
2019-02-05T08:59:24.929Z,37.23
2019-02-05T09:01:57.189Z,33.57
2019-02-05T09:04:39.238Z,38.20
2019-02-05T09:07:11.144Z,34.60
2019-02-05T09:09:39.853Z,35.54
2019-02-05T09:12:10.278Z,32.90
2019-02-05T09:14:40.751Z,41.77
2019-02-05T09:17:11.180Z,38.27
2019-02-05T09:19:42.612Z,35.85
2019-02-05T09:22:16.691Z,34.37
2019-02-05T09:24:50.424Z,38.75
2019-02-05T09:27:35.526Z,34.10
2019-02-05T09:30:18.429Z,34.08
2019-02-05T09:33:01.928Z,36.08
2019-02-05T09:35:32.600Z,37.93
2019-02-05T09:38:04.842Z,34.58
2019-02-05T09:40:37.925Z,32.63
2019-02-05T09:43:08.464Z,29.92
2019-02-05T09:45:40.610Z,32.47
2019-02-05T09:48:11.379Z,25.70
2019-02-05T09:50:45.285Z,32.37
2019-02-05T09:53:18.713Z,30.40
2019-02-05T09:56:02.784Z,27.67
2019-02-05T09:58:39.463Z,27.87
2019-02-05T10:01:17.765Z,30.47
2019-02-05T10:03:48.675Z,37.67
2019-02-05T10:06:19.874Z,29.08
2019-02-05T10:08:50.199Z,31.00
2019-02-05T10:11:22.772Z,36.28
2019-02-05T10:13:53.064Z,31.73
2019-02-05T10:19:10.641Z,31.77
2019-02-05T10:22:06.166Z,33.15
2019-02-05T10:24:40.658Z,35.17
2019-02-05T10:27:14.654Z,37.40
2019-02-05T10:29:59.273Z,36.70
2019-02-05T10:32:29.745Z,28.07
2019-02-05T10:35:04.280Z,29.20
2019-02-05T10:37:41.320Z,26.33
2019-02-05T10:40:08.459Z,29.57
2019-02-05T10:42:40.238Z,32.70
2019-02-05T10:45:11.947Z,32.17
2019-02-05T10:47:42.257Z,32.83
2019-02-05T10:50:19.983Z,28.97
2019-02-05T10:52:56.815Z,28.97
2019-02-05T10:55:29.791Z,27.50
2019-02-05T10:58:05.103Z,29.90
2019-02-05T11:00:50.407Z,29.53
2019-02-05T11:03:29.248Z,26.37
2019-02-05T11:06:07.339Z,31.57
2019-02-05T11:08:38.955Z,29.93
2019-02-05T11:11:16.040Z,26.42
2019-02-05T11:13:53.736Z,27.70
2019-02-05T11:16:31.731Z,25.00
2019-02-05T11:19:03.794Z,23.70
2019-02-05T11:21:37.328Z,24.20
2019-02-05T11:24:07.920Z,24.75
2019-02-05T11:26:38.503Z,24.20
2019-02-05T11:29:08.875Z,22.03
2019-02-05T11:31:41.287Z,24.15
2019-02-05T11:34:12.587Z,20.30
2019-02-05T11:36:44.548Z,21.02
2019-02-05T11:39:16.670Z,19.63
2019-02-05T11:41:54.986Z,23.67
2019-02-05T11:44:35.443Z,23.47
2019-02-05T11:47:24.883Z,22.70
2019-02-05T11:50:03.462Z,22.97
2019-02-05T11:52:38.377Z,21.63
2019-02-05T11:55:31.732Z,22.10
2019-02-05T11:58:15.943Z,21.37
2019-02-05T12:01:09.243Z,23.53
2019-02-05T12:04:16.363Z,26.63
2019-02-05T12:06:22.524Z,29.50
2019-02-05T12:09:06.108Z,30.33
2019-02-05T12:11:41.145Z,30.40
2019-02-05T12:14:24.736Z,32.65
2019-02-05T12:17:10.582Z,33.10
2019-02-05T12:20:03.518Z,29.53
2019-02-05T12:22:40.109Z,31.47
2019-02-05T12:25:37.599Z,32.50
2019-02-05T12:28:36.437Z,30.03
2019-02-05T12:31:11.544Z,28.00
2019-02-05T12:33:58.428Z,25.55
2019-02-05T12:36:44.262Z,30.65
2019-02-05T12:39:41.343Z,30.30
2019-02-05T12:42:28.296Z,29.00
2019-02-05T12:45:10.311Z,29.23
2019-02-05T12:47:46.834Z,27.13
2019-02-05T12:50:29.061Z,25.77
2019-02-05T12:53:12.822Z,25.50
2019-02-05T12:55:50.962Z,23.87
2019-02-05T12:58:26.711Z,28.37
2019-02-05T13:01:15.224Z,31.70
2019-02-05T13:04:00.058Z,27.83
2019-02-05T13:10:08.553Z,27.73
2019-02-05T13:13:05.283Z,21.87
2019-02-05T13:19:56.699Z,25.00
2019-02-05T13:22:41.600Z,28.40
2019-02-05T13:25:55.728Z,33.08
2019-02-05T13:29:07.845Z,26.80
2019-02-05T13:32:07.584Z,28.10
2019-02-05T13:35:08.780Z,27.87
2019-02-05T13:37:59.350Z,27.43
2019-02-05T13:45:02.024Z,24.60
2019-02-05T13:47:09.549Z,24.17
2019-02-05T13:56:12.604Z,25.35
2019-02-05T13:58:43.386Z,23.15
2019-02-05T14:01:20.056Z,22.67
2019-02-05T14:04:11.978Z,27.68
2019-02-05T14:06:51.496Z,28.13
2019-02-05T14:09:21.561Z,26.97
2019-02-05T14:11:56.694Z,28.57
2019-02-05T14:14:27.192Z,28.53
2019-02-05T14:16:58.034Z,27.20
2019-02-05T14:19:28.770Z,26.80
2019-02-05T14:22:00.780Z,25.53
2019-02-05T14:24:48.457Z,26.63
2019-02-05T14:27:33.231Z,30.10
2019-02-05T14:30:06.436Z,29.45
2019-02-05T14:33:14.752Z,28.03
2019-02-05T14:35:18.690Z,34.77
2019-02-05T14:37:55.176Z,29.57
2019-02-05T14:40:27.771Z,29.52
2019-02-05T14:42:58.410Z,31.07
2019-02-05T14:45:29.802Z,27.67
2019-02-05T14:48:03.196Z,33.30
2019-02-05T14:50:40.165Z,33.08
2019-02-05T14:53:16.341Z,26.23
2019-02-05T14:55:53.305Z,37.37
2019-02-05T14:58:27.357Z,32.10
2019-02-05T15:00:57.922Z,41.03
2019-02-05T15:03:28.743Z,33.87
2019-02-05T15:05:59.059Z,36.50
2019-02-05T15:08:31.305Z,33.43
2019-02-05T15:11:03.392Z,37.10
2019-02-05T15:13:36.643Z,34.23
2019-02-05T15:16:13.463Z,31.87
2019-02-05T15:18:45.001Z,34.93
2019-02-05T15:21:14.636Z,33.35
2019-02-05T15:23:45.068Z,37.37
2019-02-05T15:26:43.080Z,33.10
2019-02-05T15:29:28.155Z,32.28
2019-02-05T15:32:02.999Z,32.50
2019-02-05T15:34:34.034Z,35.27
2019-02-05T15:37:12.375Z,31.95
2019-02-05T15:39:46.183Z,33.70
2019-02-05T15:42:17.040Z,32.42
2019-02-05T15:44:47.655Z,34.00
2019-02-05T15:47:18.731Z,32.35
2019-02-05T15:50:05.851Z,30.47
2019-02-05T15:52:36.125Z,33.80
2019-02-05T15:55:10.577Z,29.37
2019-02-05T15:57:43.922Z,27.22
2019-02-05T16:00:17.055Z,29.77
2019-02-05T16:02:47.699Z,30.33
2019-02-05T16:05:18.614Z,31.33
2019-02-05T16:07:53.066Z,30.07
2019-02-05T16:10:25.742Z,30.90
2019-02-05T16:13:20.328Z,31.97
2019-02-05T16:15:58.422Z,31.73
2019-02-05T16:18:36.486Z,25.37
2019-02-05T16:21:07.698Z,31.87
2019-02-05T16:23:38.222Z,30.73
2019-02-05T16:26:09.368Z,26.50
2019-02-05T16:28:40.723Z,28.13
2019-02-05T16:31:11.213Z,30.55
2019-02-05T16:33:47.991Z,31.23
2019-02-05T16:36:24.974Z,25.20
2019-02-05T16:38:59.566Z,30.77
2019-02-05T16:41:42.081Z,27.90
2019-02-05T16:44:19.629Z,25.33
2019-02-05T16:46:48.638Z,28.67
2019-02-05T16:49:22.207Z,32.13
2019-02-05T16:51:53.151Z,25.77
2019-02-05T16:54:24.317Z,29.95
2019-02-05T16:56:58.104Z,27.90
2019-02-05T16:59:44.969Z,24.00
2019-02-05T17:02:28.648Z,29.33
2019-02-05T17:04:57.513Z,35.77
2019-02-05T17:07:28.129Z,29.73
2019-02-05T17:09:58.633Z,28.40
2019-02-05T17:12:36.597Z,25.68
2019-02-05T17:15:17.740Z,32.03
2019-02-05T17:18:01.505Z,33.37
2019-02-05T17:20:54.525Z,30.12
2019-02-05T17:23:30.208Z,30.13
2019-02-05T17:26:02.144Z,30.93
2019-02-05T17:28:36.517Z,29.48
2019-02-05T17:31:07.648Z,30.30
2019-02-05T17:33:38.704Z,33.37
2019-02-05T17:36:11.802Z,29.92
2019-02-05T17:38:43.890Z,32.07
2019-02-05T17:41:20.741Z,37.53
2019-02-05T17:44:14.903Z,35.63
2019-02-05T17:46:50.881Z,33.27
2019-02-05T17:49:31.942Z,34.83
2019-02-05T17:52:05.559Z,34.37
2019-02-05T17:54:43.893Z,38.93
2019-02-05T17:57:25.384Z,37.83
2019-02-05T18:00:07.438Z,35.33
2019-02-05T18:02:35.044Z,38.50
2019-02-05T18:05:09.987Z,37.13
2019-02-05T18:07:40.823Z,37.90
2019-02-05T18:10:13.175Z,34.37
2019-02-05T18:12:50.839Z,36.47
2019-02-05T18:15:31.367Z,33.40
2019-02-05T18:18:13.923Z,37.57
2019-02-05T18:20:57.359Z,38.97
2019-02-05T18:23:45.706Z,37.23
2019-02-05T18:26:28.018Z,38.63
2019-02-05T18:28:53.794Z,42.97
2019-02-05T18:31:24.994Z,39.67
2019-02-05T18:34:04.613Z,43.00
2019-02-05T18:36:49.743Z,39.80
2019-02-05T18:39:23.842Z,37.37
2019-02-05T18:42:07.521Z,38.00
2019-02-05T18:44:48.011Z,36.63
2019-02-05T18:47:36.779Z,36.43
2019-02-05T18:50:22.271Z,40.77
2019-02-05T18:53:04.558Z,36.83
2019-02-05T18:55:36.854Z,35.93
2019-02-05T18:58:32.083Z,38.27
2019-02-05T19:01:04.954Z,35.50
2019-02-05T19:03:43.830Z,39.40
2019-02-05T19:06:22.475Z,35.68
2019-02-05T19:08:59.429Z,35.33
2019-02-05T19:11:31.486Z,33.43
2019-02-05T19:14:01.885Z,30.13
2019-02-05T19:16:32.555Z,36.05
2019-02-05T19:19:14.512Z,33.83
2019-02-05T19:21:53.710Z,32.40
2019-02-05T19:24:57.525Z,31.60
2019-02-05T19:27:30.174Z,31.57
2019-02-05T19:30:07.168Z,35.93
2019-02-05T19:32:57.833Z,29.67
2019-02-05T19:35:39.403Z,33.66
2019-02-05T19:38:20.260Z,37.13
2019-02-05T19:41:08.761Z,32.37
2019-02-05T19:43:47.824Z,32.53
2019-02-05T19:47:01.355Z,32.53
2019-02-05T19:49:34.246Z,28.83
2019-02-05T19:52:06.062Z,29.97
2019-02-05T19:54:44.187Z,31.87
2019-02-05T19:57:28.627Z,34.07
2019-02-05T20:00:15.829Z,33.98
2019-02-05T20:02:39.530Z,30.10
2019-02-05T20:05:16.511Z,34.25
2019-02-05T20:07:48.870Z,30.90
2019-02-05T20:10:19.537Z,33.50
2019-02-05T20:12:55.503Z,34.20
2019-02-05T20:15:26.318Z,38.20
2019-02-05T20:17:58.372Z,37.93
2019-02-05T20:20:44.257Z,35.50
2019-02-05T20:23:23.655Z,39.40
2019-02-05T20:26:20.038Z,30.97
2019-02-05T20:29:04.232Z,32.90
2019-02-05T20:31:46.292Z,34.90
2019-02-05T20:34:46.145Z,36.87
2019-02-05T20:37:13.917Z,35.90
2019-02-05T20:40:08.038Z,35.43
2019-02-05T20:42:52.609Z,30.68
2019-02-05T20:45:30.314Z,37.37
2019-02-05T20:48:03.465Z,33.37
2019-02-05T20:50:35.897Z,32.27
2019-02-05T20:53:13.972Z,32.87
2019-02-05T20:55:42.966Z,33.33
2019-02-05T20:58:13.482Z,36.67
2019-02-05T21:00:44.669Z,30.77
2019-02-05T21:03:19.908Z,33.28
2019-02-05T21:05:54.912Z,28.98
2019-02-05T21:08:27.854Z,33.03
2019-02-05T21:11:09.839Z,28.73
2019-02-05T21:14:06.843Z,31.73
2019-02-05T21:16:57.894Z,35.67
2019-02-05T21:19:22.344Z,38.23
2019-02-05T21:21:59.009Z,38.73
2019-02-05T21:24:31.356Z,32.30
2019-02-05T21:27:04.832Z,32.78
2019-02-05T21:29:35.250Z,29.60
2019-02-05T21:32:07.170Z,31.82
2019-02-05T21:34:43.024Z,34.63
2019-02-05T21:37:30.686Z,35.80
2019-02-05T21:40:08.783Z,36.20
2019-02-05T21:42:41.131Z,34.07
2019-02-05T21:45:38.675Z,33.63
2019-02-05T21:48:04.296Z,34.60
2019-02-05T21:50:44.539Z,33.07
2019-02-05T21:53:24.396Z,37.10
2019-02-05T21:55:53.948Z,39.17
2019-02-05T21:58:31.875Z,42.10
2019-02-05T22:01:02.681Z,40.85
2019-02-05T22:03:34.432Z,35.40
2019-02-05T22:06:08.154Z,41.37
2019-02-05T22:08:46.118Z,32.03
2019-02-05T22:11:33.209Z,32.70
2019-02-05T22:14:05.014Z,36.42
2019-02-05T22:16:47.696Z,29.57
2019-02-05T22:19:32.493Z,30.93
2019-02-05T22:22:29.791Z,36.55
2019-02-05T22:25:14.696Z,35.33
2019-02-05T22:27:53.101Z,32.97
2019-02-05T22:30:38.033Z,31.42
2019-02-05T22:33:19.294Z,30.77
2019-02-05T22:36:08.526Z,34.43
2019-02-05T22:38:34.434Z,35.23
2019-02-05T22:41:14.497Z,39.17
2019-02-05T22:44:27.225Z,33.20
2019-02-05T22:46:25.732Z,33.10
2019-02-05T22:48:57.498Z,37.50
2019-02-05T22:51:28.016Z,31.77
2019-02-05T22:53:58.393Z,31.53
2019-02-05T22:56:36.116Z,29.80
2019-02-05T22:59:15.113Z,38.00
2019-02-05T23:02:00.183Z,37.57
2019-02-05T23:05:13.568Z,31.00
2019-02-05T23:07:44.234Z,31.82
2019-02-05T23:11:03.031Z,31.93
2019-02-05T23:13:24.923Z,32.63
2019-02-05T23:15:56.090Z,36.77
2019-02-05T23:18:29.079Z,32.57
2019-02-05T23:21:03.881Z,32.23
2019-02-05T23:23:38.367Z,33.90
2019-02-05T23:29:05.084Z,31.20
2019-02-05T23:31:42.812Z,31.33
2019-02-05T23:34:15.344Z,30.37
2019-02-05T23:36:45.669Z,28.47
2019-02-05T23:39:17.494Z,30.77
2019-02-05T23:41:48.110Z,26.70
2019-02-05T23:44:28.779Z,26.50
2019-02-05T23:47:03.786Z,29.37
2019-02-05T23:49:40.497Z,32.10
2019-02-05T23:52:12.803Z,31.27
2019-02-05T23:54:46.543Z,26.13
2019-02-05T23:57:18.810Z,26.30
2019-02-05T23:59:49.174Z,27.30
